Time;durP1;ratioP1;P1;durP2;ratioP2;P2;SDS_P1;SDS_P2;PMS_P1;PMS_P2;Temp;Humidity;BMP_temperature;BMP_pressure;BME280_temperature;BME280_humidity;BME280_pressure;Samples;Min_cycle;Max_cycle;Signal;HPM_P1;HPM_P2
2022/11/21 00:00:47;;;;;;;13.93;6.63;;;0.20;99.90;;;;;;5095771;28;20491;-86
2022/11/21 00:03:14;;;;;;;16.13;6.95;;;0.60;99.90;;;;;;5079455;28;20055;-82
2022/11/21 00:05:47;;;;;;;15.40;6.55;;;0.20;99.90;;;;;;5079294;28;20036;-87
2022/11/21 00:08:19;;;;;;;13.95;6.50;;;0.20;99.90;;;;;;5096370;28;20498;-87
2022/11/21 00:10:46;;;;;;;15.43;6.93;;;0.20;99.90;;;;;;5112743;28;20484;-87
2022/11/21 00:13:15;;;;;;;14.00;6.40;;;0.50;99.90;;;;;;5096036;28;20048;-87
2022/11/21 00:15:42;;;;;;;12.77;6.63;;;0.20;99.90;;;;;;5095946;28;20036;-87
2022/11/21 00:18:11;;;;;;;16.20;6.85;;;0.20;99.90;;;;;;5088491;28;20088;-87
2022/11/21 00:20:39;;;;;;;14.70;7.38;;;0.20;99.90;;;;;;5099175;28;20214;-87
2022/11/21 00:23:06;;;;;;;16.88;7.53;;;0.90;99.90;;;;;;5115908;28;20046;-87
2022/11/21 00:25:33;;;;;;;16.88;7.85;;;0.20;99.90;;;;;;5099160;28;20118;-87
2022/11/21 00:27:59;;;;;;;13.52;6.78;;;0.20;99.90;;;;;;5094222;28;20028;-87
2022/11/21 00:30:27;;;;;;;14.45;7.05;;;0.20;99.90;;;;;;5095152;28;20726;-86
2022/11/21 00:32:53;;;;;;;22.27;7.88;;;0.10;99.90;;;;;;5095413;28;20036;-87
2022/11/21 00:35:20;;;;;;;14.55;7.10;;;0.10;99.90;;;;;;5062214;28;20373;-86
2022/11/21 00:37:47;;;;;;;14.98;6.68;;;0.00;99.90;;;;;;5078943;28;20105;-86
2022/11/21 00:40:14;;;;;;;16.13;7.13;;;0.00;99.90;;;;;;5078858;28;20039;-87
2022/11/21 00:42:41;;;;;;;17.30;7.18;;;-0.10;99.90;;;;;;5078508;28;20496;-87
2022/11/21 00:45:08;;;;;;;16.45;6.97;;;-0.10;99.90;;;;;;5095158;28;20028;-87
2022/11/21 00:47:35;;;;;;;16.73;7.22;;;-0.10;99.90;;;;;;5094867;28;20089;-87
2022/11/21 00:50:02;;;;;;;13.07;6.72;;;-0.10;99.90;;;;;;5062039;28;20044;-87
2022/11/21 00:52:29;;;;;;;14.80;6.63;;;-0.20;99.90;;;;;;5078258;28;20047;-87
2022/11/21 00:54:55;;;;;;;13.18;6.65;;;0.20;99.90;;;;;;5078528;28;20484;-87
2022/11/21 00:57:22;;;;;;;14.93;7.18;;;0.60;99.90;;;;;;5061654;28;20044;-82
2022/11/21 00:59:49;;;;;;;15.70;7.05;;;-0.20;99.90;;;;;;5073596;28;20039;-87
2022/11/21 01:02:15;;;;;;;14.80;7.53;;;-0.20;99.90;;;;;;5100706;28;20124;-87
2022/11/21 01:04:42;;;;;;;17.70;7.20;;;0.30;99.90;;;;;;5094417;28;20036;-87
2022/11/21 01:07:11;;;;;;;17.27;7.57;;;-0.30;99.90;;;;;;5094568;28;20365;-86
2022/11/21 01:09:38;;;;;;;13.98;7.32;;;-0.30;99.90;;;;;;5079565;28;20036;-86
2022/11/21 01:12:05;;;;;;;18.60;7.55;;;-0.30;99.90;;;;;;5086580;28;20477;-86
2022/11/21 01:14:31;;;;;;;20.70;7.25;;;-0.40;99.90;;;;;;5098378;28;20050;-86
2022/11/21 01:16:58;;;;;;;16.05;7.85;;;-0.40;99.90;;;;;;5097767;28;20105;-87
2022/11/21 01:19:24;;;;;;;17.42;7.65;;;-0.50;99.90;;;;;;5113907;28;20069;-86
2022/11/21 01:21:51;;;;;;;14.20;6.47;;;-0.50;99.90;;;;;;5060941;28;20415;-86
2022/11/21 01:24:18;;;;;;;16.83;6.93;;;-0.40;99.90;;;;;;5094477;28;20399;-87
2022/11/21 01:26:44;;;;;;;17.63;8.00;;;-0.70;99.90;;;;;;5061096;28;20044;-86
2022/11/21 01:29:11;;;;;;;14.88;6.72;;;-0.40;99.90;;;;;;5094554;28;20125;-87
2022/11/21 01:31:38;;;;;;;17.25;7.68;;;-0.80;99.90;;;;;;5060979;28;20043;-86
2022/11/21 01:34:05;;;;;;;16.20;7.07;;;-0.80;99.90;;;;;;5077354;28;20488;-86
2022/11/21 01:36:33;;;;;;;12.13;6.70;;;-0.90;99.90;;;;;;5060907;28;20043;-87
2022/11/21 01:39:02;;;;;;;15.15;7.22;;;-0.90;99.90;;;;;;5110659;28;20749;-87
2022/11/21 01:41:32;;;;;;;15.85;6.78;;;-0.90;99.90;;;;;;5105846;28;20118;-81
2022/11/21 01:44:01;;;;;;;17.00;7.63;;;-0.90;99.90;;;;;;5114179;28;20032;-86
2022/11/21 01:46:28;;;;;;;15.48;7.28;;;-1.00;99.90;;;;;;5113749;28;20052;-86
2022/11/21 01:49:06;;;;;;;16.92;7.18;;;-0.90;99.90;;;;;;5097187;28;20396;-86
2022/11/21 01:51:56;;;;;;;17.88;6.97;;;-1.00;99.90;;;;;;5103784;28;20051;-87
2022/11/21 01:54:59;;;;;;;14.52;6.63;;;-1.00;99.90;;;;;;5093606;28;20044;-87
2022/11/21 01:57:30;;;;;;;17.35;7.35;;;-1.00;99.90;;;;;;5093629;28;20121;-87
2022/11/21 02:00:03;;;;;;;13.77;6.63;;;-1.00;99.90;;;;;;5093448;28;20042;-86
2022/11/21 02:02:35;;;;;;;16.55;7.18;;;-0.70;99.90;;;;;;5102195;28;20068;-86
2022/11/21 02:05:05;;;;;;;15.57;6.63;;;-0.90;99.90;;;;;;5107392;28;20031;-87
2022/11/21 02:07:37;;;;;;;19.55;7.43;;;-1.00;99.90;;;;;;5108268;28;20040;-87
2022/11/21 02:10:05;;;;;;;15.90;6.15;;;-0.90;99.90;;;;;;5113768;28;20483;-87
2022/11/21 02:12:38;;;;;;;14.90;7.03;;;-0.90;99.90;;;;;;5121805;28;20031;-86
2022/11/21 02:15:05;;;;;;;17.52;7.18;;;-0.60;99.90;;;;;;5130593;28;20043;-86
2022/11/21 02:17:32;;;;;;;16.58;7.40;;;-0.80;99.90;;;;;;5113908;28;20408;-86
2022/11/21 02:20:03;;;;;;;21.00;7.47;;;-0.80;99.90;;;;;;5080078;28;20093;-86
2022/11/21 02:22:51;;;;;;;17.70;7.47;;;-0.80;99.90;;;;;;5113154;28;20491;-86
2022/11/21 02:25:25;;;;;;;15.18;7.28;;;-0.70;99.90;;;;;;5113445;28;20040;-87
2022/11/21 02:27:56;;;;;;;18.90;7.18;;;-0.50;99.90;;;;;;5113257;28;20035;-86
2022/11/21 02:30:23;;;;;;;13.85;6.53;;;-0.60;99.90;;;;;;5113559;28;20039;-86
2022/11/21 02:32:50;;;;;;;13.50;6.80;;;-0.60;99.90;;;;;;5096686;28;20514;-86
2022/11/21 02:35:18;;;;;;;15.95;7.80;;;-0.60;99.90;;;;;;5096993;28;20074;-87
2022/11/21 02:38:06;;;;;;;16.15;7.38;;;-0.50;99.90;;;;;;5113388;28;20103;-87
2022/11/21 02:40:36;;;;;;;21.60;6.95;;;-0.50;99.90;;;;;;5113004;28;20051;-87
2022/11/21 02:43:22;;;;;;;17.05;7.35;;;-0.40;99.90;;;;;;5123904;28;20131;-87
2022/11/21 02:45:49;;;;;;;17.88;7.65;;;-0.40;99.90;;;;;;5093215;28;20036;-87
2022/11/21 02:48:16;;;;;;;16.27;7.00;;;-0.40;99.90;;;;;;5093179;28;20101;-87
2022/11/21 02:50:44;;;;;;;18.83;7.43;;;-0.40;99.90;;;;;;5076692;28;20500;-87
2022/11/21 02:53:15;;;;;;;15.48;6.93;;;-0.40;99.90;;;;;;5076279;28;20039;-87
2022/11/21 02:55:42;;;;;;;14.15;6.65;;;-0.30;99.90;;;;;;5109302;28;20051;-86
2022/11/21 02:58:10;;;;;;;17.63;7.55;;;-0.30;99.90;;;;;;5092986;28;20048;-87
2022/11/21 03:00:38;;;;;;;17.33;7.45;;;-0.30;99.90;;;;;;5093239;28;20100;-87
2022/11/21 03:03:04;;;;;;;17.92;8.02;;;-0.30;99.90;;;;;;5092825;28;20103;-87
2022/11/21 03:05:31;;;;;;;15.07;7.18;;;-0.30;99.90;;;;;;5091718;28;20068;-88
2022/11/21 03:07:58;;;;;;;16.02;7.30;;;-0.30;99.90;;;;;;5093034;28;20036;-86
2022/11/21 03:10:25;;;;;;;15.65;7.30;;;-0.30;99.90;;;;;;5076643;28;20185;-87
2022/11/21 03:12:59;;;;;;;18.30;8.07;;;-0.30;99.90;;;;;;5092873;28;20066;-87
2022/11/21 03:15:28;;;;;;;16.73;7.43;;;-0.30;99.90;;;;;;5079301;28;20127;-87
2022/11/21 03:17:55;;;;;;;17.63;8.00;;;-0.20;99.90;;;;;;5092647;28;20050;-87
2022/11/21 03:20:22;;;;;;;14.68;6.70;;;-0.20;99.90;;;;;;5076367;28;20190;-87
2022/11/21 03:22:49;;;;;;;15.23;6.70;;;0.10;99.90;;;;;;5075888;28;20139;-87
2022/11/21 03:25:16;;;;;;;15.30;8.07;;;-0.20;99.90;;;;;;5102977;28;20046;-87
2022/11/21 03:27:43;;;;;;;14.60;7.13;;;0.50;99.90;;;;;;5096067;28;20083;-87
2022/11/21 03:30:15;;;;;;;17.63;8.27;;;-0.20;99.90;;;;;;5095778;28;20063;-89
2022/11/21 03:32:44;;;;;;;16.75;7.03;;;-0.20;99.90;;;;;;5113049;28;20039;-87
2022/11/21 03:35:10;;;;;;;19.52;7.60;;;0.00;99.90;;;;;;5111203;28;20042;-87
2022/11/21 03:37:37;;;;;;;17.67;7.53;;;0.60;99.90;;;;;;5079651;28;20048;-87
2022/11/21 03:40:04;;;;;;;14.90;6.75;;;-0.10;99.90;;;;;;5115156;28;20043;-87
2022/11/21 03:42:31;;;;;;;16.00;7.25;;;-0.10;99.90;;;;;;5099942;28;20050;-87
2022/11/21 03:44:58;;;;;;;18.17;8.30;;;-0.10;99.90;;;;;;5116325;28;20479;-87
2022/11/21 03:47:26;;;;;;;17.92;7.93;;;0.70;99.90;;;;;;5099738;28;20044;-87
2022/11/21 03:49:53;;;;;;;18.90;8.15;;;0.00;99.90;;;;;;5133324;28;20035;-87
2022/11/21 03:52:19;;;;;;;20.00;9.00;;;0.00;99.90;;;;;;5099933;28;20043;-88
2022/11/21 03:54:46;;;;;;;14.85;7.35;;;0.00;99.90;;;;;;5099919;28;20046;-87
2022/11/21 03:57:13;;;;;;;18.15;8.32;;;0.00;99.90;;;;;;5099159;28;20036;-87
2022/11/21 03:59:39;;;;;;;18.15;8.20;;;0.00;99.90;;;;;;5095914;28;20082;-87
2022/11/21 04:02:06;;;;;;;16.88;8.00;;;0.00;99.90;;;;;;5095762;28;20376;-87
2022/11/21 04:04:33;;;;;;;18.23;8.85;;;0.00;99.90;;;;;;5112644;28;20063;-87
2022/11/21 04:06:59;;;;;;;16.08;7.75;;;0.60;99.90;;;;;;5092144;28;20042;-88
2022/11/21 04:09:26;;;;;;;19.95;9.10;;;0.40;99.90;;;;;;5082672;28;20115;-87
2022/11/21 04:11:53;;;;;;;20.83;8.05;;;0.10;99.90;;;;;;5082736;28;20043;-87
2022/11/21 04:14:19;;;;;;;16.42;7.60;;;0.10;99.90;;;;;;5083004;28;20044;-87
2022/11/21 04:16:46;;;;;;;19.05;7.95;;;0.10;99.90;;;;;;5116053;28;20150;-88
2022/11/21 04:19:12;;;;;;;15.85;7.32;;;0.90;99.90;;;;;;5098208;28;20050;-88
2022/11/21 04:21:40;;;;;;;15.80;7.70;;;1.20;99.90;;;;;;5099232;28;20043;-87
2022/11/21 04:24:07;;;;;;;19.48;8.10;;;0.20;99.90;;;;;;5098993;28;20042;-87
2022/11/21 04:26:33;;;;;;;23.13;9.57;;;0.10;99.90;;;;;;5081395;28;20482;-87
2022/11/21 04:29:00;;;;;;;19.80;8.23;;;0.10;99.90;;;;;;5095192;28;20040;-87
2022/11/21 04:31:27;;;;;;;21.38;8.80;;;0.10;99.90;;;;;;5095558;28;20044;-88
2022/11/21 04:33:53;;;;;;;17.75;7.70;;;0.10;99.90;;;;;;5079016;28;20050;-84
2022/11/21 04:36:20;;;;;;;19.35;8.75;;;0.20;99.90;;;;;;5078647;28;20036;-88
2022/11/21 04:38:46;;;;;;;19.27;8.05;;;0.10;99.90;;;;;;5080002;28;20113;-88
2022/11/21 04:41:13;;;;;;;19.30;8.52;;;0.20;99.90;;;;;;5081955;28;20043;-87
2022/11/21 04:43:40;;;;;;;18.80;8.50;;;1.20;99.90;;;;;;5098850;28;20035;-87
2022/11/21 04:46:06;;;;;;;22.98;9.10;;;0.20;99.90;;;;;;5081783;28;20036;-87
2022/11/21 04:48:33;;;;;;;22.90;8.85;;;0.20;99.90;;;;;;5098771;28;20065;-87
2022/11/21 04:51:00;;;;;;;19.08;8.45;;;0.20;99.90;;;;;;5080513;28;20046;-88
2022/11/21 04:53:26;;;;;;;23.17;8.68;;;0.80;99.90;;;;;;5082033;28;20118;-87
2022/11/21 04:55:53;;;;;;;20.00;9.50;;;0.30;99.90;;;;;;5115126;28;20031;-87
2022/11/21 04:58:20;;;;;;;20.13;8.68;;;0.60;99.90;;;;;;5107229;28;20081;-86
2022/11/21 05:00:46;;;;;;;19.33;8.05;;;0.10;99.90;;;;;;5068195;28;20027;-87
2022/11/21 05:03:13;;;;;;;21.80;9.02;;;0.10;99.90;;;;;;5114754;28;20070;-87
2022/11/21 05:05:40;;;;;;;19.60;8.85;;;0.60;99.90;;;;;;5098508;28;20035;-87
2022/11/21 05:08:06;;;;;;;23.85;9.00;;;0.00;99.90;;;;;;5098113;28;20118;-87
2022/11/21 05:13:19;;;;;;;23.23;9.48;;;0.00;99.90;;;;;;5114714;28;20089;-88
2022/11/21 05:13:20;;;;;;;18.55;9.02;;;0.00;99.90;;;;;;5103787;28;20052;-87
2022/11/21 05:15:50;;;;;;;18.52;8.23;;;-0.10;99.90;;;;;;5081787;28;20442;-87
2022/11/21 05:18:18;;;;;;;16.13;8.48;;;0.00;99.90;;;;;;5090819;28;20119;-87
2022/11/21 05:20:45;;;;;;;15.77;7.85;;;-0.10;99.90;;;;;;5094916;28;20738;-88
2022/11/21 05:23:12;;;;;;;18.95;8.50;;;-0.10;99.90;;;;;;5077799;28;20048;-88
2022/11/21 05:25:39;;;;;;;19.77;8.07;;;-0.10;99.90;;;;;;5078265;28;20047;-87
2022/11/21 05:28:05;;;;;;;21.95;8.88;;;-0.20;99.90;;;;;;5110799;28;20097;-87
2022/11/21 05:30:32;;;;;;;17.48;8.80;;;-0.20;99.90;;;;;;5094786;28;20472;-87
2022/11/21 05:32:59;;;;;;;17.27;7.78;;;-0.20;99.90;;;;;;5078113;28;20035;-88
2022/11/21 05:35:25;;;;;;;21.60;9.15;;;-0.20;99.90;;;;;;5110682;28;20131;-86
2022/11/21 05:37:58;;;;;;;18.30;8.15;;;-0.30;99.90;;;;;;5061314;28;20044;-87
2022/11/21 05:40:25;;;;;;;21.67;8.35;;;0.50;99.90;;;;;;5112954;28;20047;-87
2022/11/21 05:45:37;;;;;;;15.50;7.85;;;-0.40;99.90;;;;;;5131115;28;20106;-87
2022/11/21 05:48:06;;;;;;;19.60;8.50;;;0.10;99.90;;;;;;5097521;28;20083;-88
2022/11/21 05:50:35;;;;;;;16.67;8.63;;;-0.50;99.90;;;;;;5114967;28;20411;-87
2022/11/21 05:53:03;;;;;;;15.88;7.28;;;-0.60;99.90;;;;;;5114350;28;20100;-87
2022/11/21 05:55:30;;;;;;;18.58;8.57;;;-0.60;99.90;;;;;;5113602;28;20055;-87
2022/11/21 05:57:58;;;;;;;21.02;8.45;;;-0.70;99.90;;;;;;5112844;28;20047;-87
2022/11/21 06:00:26;;;;;;;17.65;9.07;;;-0.70;99.90;;;;;;5079270;28;20044;-86
2022/11/21 06:05:38;;;;;;;17.50;7.95;;;-0.50;99.90;;;;;;5102173;28;20130;-87
2022/11/21 06:08:04;;;;;;;14.60;7.95;;;-0.80;99.90;;;;;;5113732;28;20127;-87
2022/11/21 06:10:31;;;;;;;19.15;8.43;;;-0.80;99.90;;;;;;5112001;28;20040;-87
2022/11/21 06:13:02;;;;;;;14.70;7.63;;;-0.80;99.90;;;;;;5060604;28;20040;-87
2022/11/21 06:15:29;;;;;;;18.02;8.32;;;-0.30;99.90;;;;;;5076909;28;20499;-86
2022/11/21 06:17:55;;;;;;;18.88;9.05;;;-0.40;99.90;;;;;;5093605;28;20048;-87
2022/11/21 06:20:22;;;;;;;19.25;9.00;;;-0.80;99.90;;;;;;5076955;28;20090;-87
2022/11/21 06:22:49;;;;;;;19.08;8.93;;;-0.50;99.90;;;;;;5076931;28;20063;-87
2022/11/21 06:25:15;;;;;;;21.05;9.00;;;-0.90;99.90;;;;;;5093138;28;20055;-88
2022/11/21 06:27:42;;;;;;;23.90;9.80;;;-0.90;99.90;;;;;;5060309;28;20499;-87
2022/11/21 06:30:09;;;;;;;22.05;9.55;;;-0.90;99.90;;;;;;5095816;28;20035;-86
2022/11/21 06:32:36;;;;;;;22.08;10.43;;;-1.00;99.90;;;;;;5096768;28;20047;-87
2022/11/21 06:35:04;;;;;;;23.90;9.90;;;-0.90;99.90;;;;;;5109010;28;20524;-87
2022/11/21 06:37:30;;;;;;;21.13;10.15;;;-1.00;99.90;;;;;;5110007;28;20504;-88
2022/11/21 06:39:58;;;;;;;20.92;9.70;;;-1.00;99.90;;;;;;5093857;28;20051;-85
2022/11/21 06:42:24;;;;;;;26.20;9.85;;;-1.10;99.90;;;;;;5060143;28;20093;-86
2022/11/21 06:44:52;;;;;;;18.52;8.77;;;-1.10;99.90;;;;;;5076729;28;20035;-87
2022/11/21 06:47:18;;;;;;;20.83;9.50;;;-1.10;99.90;;;;;;5076432;28;20492;-87
2022/11/21 06:49:46;;;;;;;18.38;8.75;;;-1.20;99.90;;;;;;5097470;28;20043;-87
2022/11/21 06:52:13;;;;;;;19.35;8.45;;;-1.20;99.90;;;;;;5097130;28;20043;-87
2022/11/21 06:54:39;;;;;;;19.48;7.97;;;-1.20;99.90;;;;;;5092950;28;20043;-87
2022/11/21 06:57:06;;;;;;;20.35;9.50;;;-1.20;99.90;;;;;;5114788;28;20040;-86
2022/11/21 06:59:33;;;;;;;21.65;10.20;;;-1.30;99.90;;;;;;5093029;28;20040;-88
2022/11/21 07:01:59;;;;;;;21.48;9.40;;;-1.30;99.90;;;;;;5109686;28;20511;-87
2022/11/21 07:04:26;;;;;;;20.83;10.00;;;-1.40;99.90;;;;;;5123516;28;20384;-86
2022/11/21 07:06:53;;;;;;;22.20;9.20;;;-1.40;99.90;;;;;;5117713;28;20028;-86
2022/11/21 07:09:19;;;;;;;18.23;8.73;;;-1.30;99.90;;;;;;5072933;28;20126;-86
2022/11/21 07:11:46;;;;;;;18.95;8.25;;;-1.40;99.90;;;;;;5092521;28;20047;-86
2022/11/21 07:14:13;;;;;;;19.98;9.15;;;-1.40;99.90;;;;;;5076669;28;20398;-86
2022/11/21 07:16:39;;;;;;;20.38;9.27;;;-1.10;99.90;;;;;;5077797;28;20040;-86
2022/11/21 07:19:06;;;;;;;21.17;9.57;;;-1.30;99.90;;;;;;5116915;28;20047;-86
2022/11/21 07:21:33;;;;;;;17.55;8.65;;;-1.30;99.90;;;;;;5074941;28;20032;-86
2022/11/21 07:23:59;;;;;;;17.83;9.25;;;-1.30;99.90;;;;;;5160921;27;20031;-87
2022/11/21 07:26:26;;;;;;;18.92;9.38;;;-1.30;99.90;;;;;;5068951;28;20032;-86
2022/11/21 07:28:53;;;;;;;22.45;10.07;;;-1.30;99.90;;;;;;5074089;28;20051;-86
2022/11/21 07:31:19;;;;;;;23.58;10.27;;;-1.30;99.90;;;;;;5079561;28;20043;-82
2022/11/21 07:33:47;;;;;;;19.67;9.38;;;-1.20;99.90;;;;;;5079452;28;20059;-86
2022/11/21 07:36:13;;;;;;;17.48;8.90;;;-1.30;99.90;;;;;;5067448;28;20035;-86
2022/11/21 07:38:40;;;;;;;29.98;9.60;;;-1.30;99.90;;;;;;5147233;28;20044;-86
2022/11/21 07:41:07;;;;;;;19.98;9.07;;;-1.20;99.90;;;;;;5104643;28;20069;-84
2022/11/21 07:43:34;;;;;;;21.70;9.82;;;-1.20;99.90;;;;;;5073801;28;20032;-85
2022/11/21 07:46:01;;;;;;;19.80;8.90;;;-1.00;99.90;;;;;;5095009;28;20115;-86
2022/11/21 07:48:27;;;;;;;19.10;9.70;;;-1.10;99.90;;;;;;5078422;28;20101;-85
2022/11/21 07:50:54;;;;;;;19.15;9.52;;;-1.10;99.90;;;;;;5111775;28;20036;-84
2022/11/21 07:53:21;;;;;;;21.98;8.90;;;-0.80;99.90;;;;;;5093710;28;20058;-85
2022/11/21 07:55:47;;;;;;;20.70;9.40;;;-1.00;99.90;;;;;;5098489;28;20046;-85
2022/11/21 07:58:16;;;;;;;19.23;9.63;;;-1.00;99.90;;;;;;5091371;28;20061;-85
2022/11/21 08:00:42;;;;;;;20.42;9.48;;;-1.10;99.90;;;;;;5120604;28;20127;-85
2022/11/21 08:03:11;;;;;;;22.60;9.30;;;-1.10;99.90;;;;;;5112004;28;20169;-86
2022/11/21 08:05:40;;;;;;;22.88;10.32;;;-0.50;99.90;;;;;;5118734;28;20503;-87
2022/11/21 08:08:07;;;;;;;20.30;9.10;;;0.10;99.90;;;;;;5081846;28;20046;-87
2022/11/21 08:10:37;;;;;;;23.50;9.82;;;-0.40;99.90;;;;;;5065545;28;20058;-86
2022/11/21 08:13:04;;;;;;;23.90;10.45;;;-0.90;99.90;;;;;;5083258;28;20047;-88
2022/11/21 08:15:31;;;;;;;21.10;10.18;;;-0.80;99.90;;;;;;5099327;28;20028;-88
2022/11/21 08:18:05;;;;;;;21.05;9.68;;;-0.80;99.90;;;;;;5101339;28;20035;-86
2022/11/21 08:20:32;;;;;;;22.08;9.40;;;-0.70;99.90;;;;;;5125961;28;20042;-87
2022/11/21 08:22:58;;;;;;;24.15;9.93;;;-0.70;99.90;;;;;;5078738;28;20043;-87
2022/11/21 08:25:25;;;;;;;26.00;10.43;;;-0.60;99.90;;;;;;5078374;28;20040;-87
2022/11/21 08:27:55;;;;;;;22.67;10.73;;;-0.60;99.90;;;;;;5095665;28;20450;-88
2022/11/21 08:30:22;;;;;;;27.10;10.68;;;-0.60;99.90;;;;;;5097668;28;20140;-87
2022/11/21 08:32:49;;;;;;;22.85;10.02;;;-0.60;99.90;;;;;;5131946;28;20055;-87
2022/11/21 08:35:16;;;;;;;23.77;10.98;;;-0.60;99.90;;;;;;5099015;28;20039;-87
2022/11/21 08:37:43;;;;;;;24.42;11.05;;;-0.50;99.90;;;;;;5098361;28;20141;-88
2022/11/21 08:40:10;;;;;;;26.95;11.00;;;-0.60;99.90;;;;;;5114900;28;20051;-88
2022/11/21 08:42:37;;;;;;;23.58;10.35;;;-0.50;99.90;;;;;;5080975;28;20057;-87
2022/11/21 08:45:07;;;;;;;23.45;10.75;;;-0.50;99.90;;;;;;5084082;28;20036;-85
2022/11/21 08:47:33;;;;;;;24.60;10.27;;;-0.40;99.90;;;;;;5121509;28;20526;-87
2022/11/21 08:50:00;;;;;;;23.20;9.63;;;-0.40;99.90;;;;;;5141493;28;20039;-88
2022/11/21 08:52:27;;;;;;;19.42;9.50;;;-0.40;99.90;;;;;;5131181;28;20134;-85
2022/11/21 08:54:53;;;;;;;23.30;9.95;;;-0.40;99.90;;;;;;5105674;28;20031;-88
2022/11/21 08:57:20;;;;;;;21.27;9.30;;;0.30;99.90;;;;;;5128260;28;20035;-88
2022/11/21 08:59:47;;;;;;;23.92;10.73;;;0.20;99.90;;;;;;5098052;28;20127;-88
2022/11/21 09:02:13;;;;;;;22.05;10.25;;;-0.40;99.90;;;;;;5084042;28;20035;-87
2022/11/21 09:04:40;;;;;;;21.38;10.32;;;-0.30;99.90;;;;;;5088337;28;20044;-89
2022/11/21 09:07:06;;;;;;;22.48;10.10;;;-0.30;99.90;;;;;;5101598;28;20602;-89
2022/11/21 09:09:33;;;;;;;24.25;10.10;;;0.80;99.90;;;;;;5077895;28;20040;-88
2022/11/21 09:12:01;;;;;;;19.90;10.35;;;-0.20;99.90;;;;;;5068102;28;20040;-85
2022/11/21 09:19:58;;;;;;;20.27;9.23;;;0.00;99.90;;;;;;5096890;28;20052;-89
2022/11/21 09:22:25;;;;;;;19.98;9.75;;;0.10;99.90;;;;;;5100907;28;20048;-88
2022/11/21 09:24:52;;;;;;;21.85;10.70;;;0.80;99.90;;;;;;5088390;28;20035;-87
2022/11/21 09:27:19;;;;;;;22.02;10.48;;;0.20;99.90;;;;;;5096835;28;20123;-90
2022/11/21 09:29:45;;;;;;;22.00;10.43;;;0.40;99.90;;;;;;5079333;28;20043;-90
2022/11/21 09:32:12;;;;;;;23.15;10.63;;;1.10;99.90;;;;;;5075398;28;20123;-89
2022/11/21 09:34:38;;;;;;;23.27;11.05;;;0.40;99.90;;;;;;5082674;28;20518;-89
2022/11/21 09:37:05;;;;;;;21.98;10.77;;;0.50;99.90;;;;;;5093164;28;20090;-88
2022/11/21 09:39:33;;;;;;;21.80;10.82;;;0.50;99.90;;;;;;5085475;28;20047;-89
2022/11/21 09:41:59;;;;;;;23.05;9.82;;;1.40;99.90;;;;;;5114011;28;20488;-89
2022/11/21 09:44:35;;;;;;;22.70;10.57;;;1.60;99.90;;;;;;5113617;28;20046;-89
2022/11/21 09:47:26;;;;;;;25.90;10.35;;;0.80;99.90;;;;;;5130815;28;20055;-90
2022/11/21 09:50:04;;;;;;;21.88;10.15;;;1.10;99.90;;;;;;5093783;28;20408;-91
2022/11/21 09:52:40;;;;;;;22.13;11.43;;;0.80;99.90;;;;;;5112677;28;20130;-85
2022/11/21 09:55:25;;;;;;;;;;;0.80;99.90;;;;;;5114821;28;20040;-90
2022/11/21 09:57:52;;;;;;;24.80;11.45;;;0.80;99.90;;;;;;5113429;28;19919;-90
2022/11/21 10:00:24;;;;;;;29.50;11.50;;;1.60;99.90;;;;;;5096708;28;20046;-90
2022/11/21 10:02:51;;;;;;;26.58;11.40;;;0.90;99.90;;;;;;5085938;28;20122;-90
2022/11/21 10:05:48;;;;;;;24.75;11.52;;;0.90;99.90;;;;;;5086811;28;20047;-90
2022/11/21 10:08:34;;;;;;;21.02;9.60;;;1.00;99.90;;;;;;5090594;28;20063;-91
2022/11/21 10:11:14;;;;;;;22.95;10.07;;;1.00;99.90;;;;;;5094274;28;20079;-91
2022/11/21 10:13:59;;;;;;;24.45;10.70;;;1.00;99.90;;;;;;5106445;28;20129;-91
2022/11/21 10:16:55;;;;;;;25.00;11.07;;;1.00;99.90;;;;;;5131118;28;20434;-92
2022/11/21 10:20:06;;;;;;;24.80;10.50;;;1.10;99.90;;;;;;5130855;28;20040;-91
2022/11/21 10:22:32;;;;;;;20.52;9.80;;;1.10;99.90;;;;;;5074994;28;20048;-91
2022/11/21 10:25:11;;;;;;;23.75;9.52;;;1.10;99.90;;;;;;5093565;28;20565;-90
2022/11/21 10:27:52;;;;;;;20.50;9.88;;;1.10;99.90;;;;;;5110359;28;20073;-90
2022/11/21 10:30:20;;;;;;;22.13;9.95;;;1.60;99.90;;;;;;5128422;28;20040;-91
2022/11/21 10:33:03;;;;;;;20.42;9.35;;;1.20;99.90;;;;;;5096993;28;20044;-89
2022/11/21 10:35:44;;;;;;;20.00;9.00;;;2.10;99.90;;;;;;5113974;28;20040;-91
2022/11/21 10:38:21;;;;;;;22.73;10.25;;;1.20;99.90;;;;;;5093437;28;20044;-89
2022/11/21 10:40:53;;;;;;;23.40;10.23;;;1.30;99.90;;;;;;5093592;28;20074;-90
2022/11/21 10:46:18;;;;;;;18.92;9.70;;;1.30;99.90;;;;;;5110187;28;20040;-89
2022/11/21 10:49:03;;;;;;;24.63;10.52;;;1.40;99.90;;;;;;5111887;28;20060;-90
2022/11/21 10:51:48;;;;;;;20.27;9.23;;;1.40;99.90;;;;;;5065215;28;20047;-89
2022/11/21 10:54:34;;;;;;;19.73;10.00;;;1.50;99.90;;;;;;5103155;28;20051;-90
2022/11/21 10:57:11;;;;;;;29.30;10.27;;;1.50;99.90;;;;;;5119305;28;20048;-90
2022/11/21 10:59:38;;;;;;;19.17;9.38;;;1.60;99.90;;;;;;5114581;28;20044;-90
2022/11/21 11:02:13;;;;;;;21.35;9.60;;;1.80;99.90;;;;;;5080619;28;20712;-89
2022/11/21 11:04:40;;;;;;;16.27;8.40;;;1.80;99.90;;;;;;5097142;28;20043;-83
2022/11/21 11:07:23;;;;;;;19.85;8.85;;;2.30;99.90;;;;;;5080795;28;20406;-89
2022/11/21 11:09:51;;;;;;;20.08;9.50;;;2.20;99.90;;;;;;5097048;28;20172;-90
2022/11/21 11:15:25;;;;;;;19.90;8.68;;;2.00;99.90;;;;;;5089802;28;20039;-89
2022/11/21 11:18:03;;;;;;;20.15;9.15;;;2.00;99.90;;;;;;5107289;28;20039;-90
2022/11/21 11:20:40;;;;;;;20.80;9.32;;;2.00;99.90;;;;;;5113853;28;20414;-90
2022/11/21 11:23:19;;;;;;;21.75;9.00;;;2.10;99.90;;;;;;5104568;28;20411;-91
2022/11/21 11:25:54;;;;;;;20.05;9.65;;;2.10;99.90;;;;;;5097158;28;20051;-89
2022/11/21 11:28:24;;;;;;;18.75;8.38;;;2.20;99.90;;;;;;5131156;28;20035;-91
2022/11/21 11:30:54;;;;;;;20.00;9.48;;;2.30;99.90;;;;;;5106434;28;20073;-90
2022/11/21 11:33:34;;;;;;;21.17;8.38;;;2.30;99.90;;;;;;5100019;28;20040;-90
2022/11/21 11:36:38;;;;;;;18.35;7.88;;;2.40;99.90;;;;;;5109463;28;20035;-90
2022/11/21 11:39:17;;;;;;;15.05;7.13;;;2.40;99.90;;;;;;5109904;28;20120;-90
2022/11/21 11:48:34;;;;;;;14.50;6.97;;;2.60;99.90;;;;;;5124673;28;20043;-90
2022/11/21 11:51:20;;;;;;;15.15;7.10;;;2.60;99.90;;;;;;5116492;28;20047;-89
2022/11/21 11:53:54;;;;;;;16.02;6.93;;;2.60;99.90;;;;;;5103932;28;20032;-85
2022/11/21 11:56:23;;;;;;;13.85;6.72;;;2.70;99.90;;;;;;5116628;28;20035;-90
2022/11/21 11:59:16;;;;;;;13.95;6.95;;;2.70;99.90;;;;;;5112907;28;20404;-90
2022/11/21 12:01:58;;;;;;;15.00;7.10;;;2.70;99.90;;;;;;5102882;28;20084;-91
2022/11/21 12:04:28;;;;;;;14.85;7.03;;;2.80;99.90;;;;;;5120822;28;20043;-91
2022/11/21 12:07:14;;;;;;;15.50;7.43;;;3.40;99.90;;;;;;5117319;28;20496;-90
2022/11/21 12:10:12;;;;;;;16.42;7.45;;;2.90;99.90;;;;;;5101929;28;20071;-91
2022/11/21 12:12:44;;;;;;;15.60;6.88;;;2.90;99.90;;;;;;5128048;28;20066;-92
2022/11/21 12:15:47;;;;;;;13.32;6.07;;;3.60;99.90;;;;;;5112813;28;20039;-90
2022/11/21 12:18:14;;;;;;;13.77;6.88;;;3.10;99.90;;;;;;5116234;28;20074;-90
2022/11/21 12:20:46;;;;;;;15.18;6.28;;;3.00;99.90;;;;;;5116207;28;20075;-90
2022/11/21 12:23:14;;;;;;;15.10;6.82;;;3.10;99.90;;;;;;5114299;28;20116;-91
2022/11/21 12:26:06;;;;;;;15.40;6.40;;;3.70;99.90;;;;;;5079516;28;20071;-90
2022/11/21 12:28:52;;;;;;;12.32;6.57;;;3.10;99.90;;;;;;5112139;28;20044;-91
2022/11/21 12:31:24;;;;;;;15.50;6.65;;;3.10;99.90;;;;;;5119234;28;20031;-89
2022/11/21 12:34:03;;;;;;;13.43;5.72;;;3.10;99.90;;;;;;5106434;28;20118;-90
2022/11/21 12:36:44;;;;;;;12.88;6.00;;;3.10;99.90;;;;;;5107148;28;20403;-90
2022/11/21 12:39:31;;;;;;;14.88;5.88;;;3.20;99.90;;;;;;5105112;28;20054;-90
2022/11/21 12:45:27;;;;;;;11.15;5.63;;;3.20;99.90;;;;;;5111956;28;20076;-89
2022/11/21 12:54:32;;;;;;;10.27;5.07;;;3.50;99.90;;;;;;5088633;28;20048;-90
2022/11/21 12:57:12;;;;;;;10.48;4.82;;;3.40;99.90;;;;;;5071941;28;20044;-89
2022/11/21 12:59:50;;;;;;;11.85;5.55;;;3.40;99.90;;;;;;5091765;28;20732;-89
2022/11/21 13:02:22;;;;;;;11.77;5.60;;;3.40;99.90;;;;;;5091674;28;20118;-90
2022/11/21 13:04:50;;;;;;;13.68;5.68;;;3.40;99.90;;;;;;5091828;28;20036;-90
2022/11/21 13:07:19;;;;;;;12.85;5.80;;;3.60;99.90;;;;;;5071651;28;20059;-90
2022/11/21 13:09:50;;;;;;;14.80;6.07;;;3.60;99.90;;;;;;5088545;28;20036;-90
2022/11/21 13:12:39;;;;;;;16.10;7.32;;;3.50;99.90;;;;;;5084892;28;20052;-90
2022/11/21 13:15:30;;;;;;;16.45;7.55;;;3.50;99.90;;;;;;5071966;28;20519;-90
2022/11/21 13:18:22;;;;;;;15.50;6.78;;;3.50;99.90;;;;;;5088875;28;20064;-90
2022/11/21 13:20:51;;;;;;;11.98;6.18;;;3.60;99.90;;;;;;5081425;28;20051;-90
2022/11/21 13:23:39;;;;;;;13.30;5.28;;;3.60;99.90;;;;;;5081269;28;20072;-88
2022/11/21 13:26:24;;;;;;;10.60;5.38;;;3.60;99.90;;;;;;5076566;28;20071;-90
2022/11/21 13:29:11;;;;;;;11.38;5.40;;;3.60;99.90;;;;;;5080431;28;20119;-90
2022/11/21 13:31:39;;;;;;;12.98;5.55;;;3.60;99.90;;;;;;5097012;28;20035;-91